Weather at Malvinas Heroes Hospital Heliport

Public forecast

Using degrees Celsius for public forecast. Weather courtesy of forecast.io.

Closest aviation weather report (METAR) to Malvinas Heroes Hospital Heliport

Closest report is Minister Pistarini International Airport, 13.7 nm (25.4 km) SE.

2024/05/28 00:32 (retrieved 37 minutes ago)

SAEZ 280032Z 19007KT 9999 BKN015 BKN025 10/07 Q1026 NOSIG

Closest aviation forecast (TAF) to Malvinas Heroes Hospital Heliport

Forecast is more than 6 hours old.

Closest forecast is Rubem Berta Airport, 305.9 nm (566.5 km) NNE.

2024/05/27 18:00 (retrieved 7 hours ago)

TAF SBUG 271500Z 2718/2806 21012KT 9999 BKN010 TX10/2718Z TN07/2806Z BECMG 2719/2721 SCT015 BECMG 2802/2804 BKN008 RMK PDW